sensor_id;sensor_type;location;lat;lon;timestamp;temperature;humidity
73547;SHT30;61807;48.384;-4.386;2023-04-15T00:00:36;10.53;72.54
73547;SHT30;61807;48.384;-4.386;2023-04-15T00:03:02;10.53;72.50
73547;SHT30;61807;48.384;-4.386;2023-04-15T00:05:29;10.50;72.54
73547;SHT30;61807;48.384;-4.386;2023-04-15T00:07:55;10.51;72.45
73547;SHT30;61807;48.384;-4.386;2023-04-15T00:10:21;10.50;72.46
73547;SHT30;61807;48.384;-4.386;2023-04-15T00:12:46;10.47;72.48
73547;SHT30;61807;48.384;-4.386;2023-04-15T00:15:12;10.47;72.36
73547;SHT30;61807;48.384;-4.386;2023-04-15T00:17:37;10.47;72.40
73547;SHT30;61807;48.384;-4.386;2023-04-15T00:20:04;10.46;72.44
73547;SHT30;61807;48.384;-4.386;2023-04-15T00:22:31;10.46;72.40
73547;SHT30;61807;48.384;-4.386;2023-04-15T00:24:56;10.48;72.38
73547;SHT30;61807;48.384;-4.386;2023-04-15T00:27:22;10.48;72.35
73547;SHT30;61807;48.384;-4.386;2023-04-15T00:29:47;10.48;72.27
73547;SHT30;61807;48.384;-4.386;2023-04-15T00:32:12;10.43;72.26
73547;SHT30;61807;48.384;-4.386;2023-04-15T00:34:38;10.44;72.29
73547;SHT30;61807;48.384;-4.386;2023-04-15T00:37:03;10.41;72.30
73547;SHT30;61807;48.384;-4.386;2023-04-15T00:39:29;10.44;72.30
73547;SHT30;61807;48.384;-4.386;2023-04-15T00:41:55;10.43;72.24
73547;SHT30;61807;48.384;-4.386;2023-04-15T00:44:21;10.43;72.25
73547;SHT30;61807;48.384;-4.386;2023-04-15T00:46:47;10.38;72.25
73547;SHT30;61807;48.384;-4.386;2023-04-15T00:49:14;10.37;72.32
73547;SHT30;61807;48.384;-4.386;2023-04-15T00:51:40;10.33;72.26
73547;SHT30;61807;48.384;-4.386;2023-04-15T00:54:05;10.32;72.30
73547;SHT30;61807;48.384;-4.386;2023-04-15T00:56:36;10.32;72.43
73547;SHT30;61807;48.384;-4.386;2023-04-15T00:59:05;10.34;72.51
73547;SHT30;61807;48.384;-4.386;2023-04-15T01:01:33;10.32;72.51
73547;SHT30;61807;48.384;-4.386;2023-04-15T01:03:59;10.29;72.48
73547;SHT30;61807;48.384;-4.386;2023-04-15T01:06:25;10.27;72.68
73547;SHT30;61807;48.384;-4.386;2023-04-15T01:08:52;10.29;72.66
73547;SHT30;61807;48.384;-4.386;2023-04-15T01:11:18;10.26;72.67
73547;SHT30;61807;48.384;-4.386;2023-04-15T01:13:43;10.27;72.77
73547;SHT30;61807;48.384;-4.386;2023-04-15T01:16:10;10.26;72.84
73547;SHT30;61807;48.384;-4.386;2023-04-15T01:18:36;10.27;72.94
73547;SHT30;61807;48.384;-4.386;2023-04-15T01:21:03;10.29;73.02
73547;SHT30;61807;48.384;-4.386;2023-04-15T01:23:29;10.24;73.14
73547;SHT30;61807;48.384;-4.386;2023-04-15T01:25:55;10.23;73.20
73547;SHT30;61807;48.384;-4.386;2023-04-15T01:28:21;10.20;73.37
73547;SHT30;61807;48.384;-4.386;2023-04-15T01:30:47;10.21;73.51
73547;SHT30;61807;48.384;-4.386;2023-04-15T01:33:12;10.21;73.61
73547;SHT30;61807;48.384;-4.386;2023-04-15T01:35:38;10.23;73.65
73547;SHT30;61807;48.384;-4.386;2023-04-15T01:38:08;10.24;73.72
73547;SHT30;61807;48.384;-4.386;2023-04-15T01:40:34;10.29;73.79
73547;SHT30;61807;48.384;-4.386;2023-04-15T01:43:03;10.29;73.80
73547;SHT30;61807;48.384;-4.386;2023-04-15T01:45:28;10.30;73.85
73547;SHT30;61807;48.384;-4.386;2023-04-15T01:47:54;10.30;73.78
73547;SHT30;61807;48.384;-4.386;2023-04-15T01:50:19;10.30;73.88
73547;SHT30;61807;48.384;-4.386;2023-04-15T01:52:46;10.32;73.98
73547;SHT30;61807;48.384;-4.386;2023-04-15T01:55:12;10.32;74.02
73547;SHT30;61807;48.384;-4.386;2023-04-15T01:57:38;10.32;74.11
73547;SHT30;61807;48.384;-4.386;2023-04-15T02:00:04;10.29;74.15
73547;SHT30;61807;48.384;-4.386;2023-04-15T02:02:32;10.30;74.19
73547;SHT30;61807;48.384;-4.386;2023-04-15T02:04:57;10.33;74.00
73547;SHT30;61807;48.384;-4.386;2023-04-15T02:07:23;10.33;74.13
73547;SHT30;61807;48.384;-4.386;2023-04-15T02:09:48;10.30;74.08
73547;SHT30;61807;48.384;-4.386;2023-04-15T02:12:14;10.30;74.25
73547;SHT30;61807;48.384;-4.386;2023-04-15T02:14:39;10.27;74.29
73547;SHT30;61807;48.384;-4.386;2023-04-15T02:17:05;10.27;74.41
73547;SHT30;61807;48.384;-4.386;2023-04-15T02:19:34;10.26;74.40
73547;SHT30;61807;48.384;-4.386;2023-04-15T02:21:59;10.29;74.45
73547;SHT30;61807;48.384;-4.386;2023-04-15T02:24:27;10.29;74.48
73547;SHT30;61807;48.384;-4.386;2023-04-15T02:26:52;10.30;74.47
73547;SHT30;61807;48.384;-4.386;2023-04-15T02:29:17;10.26;74.50
73547;SHT30;61807;48.384;-4.386;2023-04-15T02:31:43;10.27;74.52
73547;SHT30;61807;48.384;-4.386;2023-04-15T02:34:09;10.26;74.60
73547;SHT30;61807;48.384;-4.386;2023-04-15T02:36:34;10.24;74.52
73547;SHT30;61807;48.384;-4.386;2023-04-15T02:39:00;10.23;74.53
73547;SHT30;61807;48.384;-4.386;2023-04-15T02:41:25;10.23;74.57
73547;SHT30;61807;48.384;-4.386;2023-04-15T02:43:53;10.21;74.60
73547;SHT30;61807;48.384;-4.386;2023-04-15T02:46:18;10.21;74.59
73547;SHT30;61807;48.384;-4.386;2023-04-15T02:48:44;10.18;74.69
73547;SHT30;61807;48.384;-4.386;2023-04-15T02:51:13;10.20;74.67
73547;SHT30;61807;48.384;-4.386;2023-04-15T02:53:39;10.21;74.57
73547;SHT30;61807;48.384;-4.386;2023-04-15T02:56:06;10.21;74.54
73547;SHT30;61807;48.384;-4.386;2023-04-15T02:58:32;10.20;74.58
73547;SHT30;61807;48.384;-4.386;2023-04-15T03:00:59;10.18;74.61
73547;SHT30;61807;48.384;-4.386;2023-04-15T03:03:24;10.21;74.53
73547;SHT30;61807;48.384;-4.386;2023-04-15T03:05:50;10.20;74.61
73547;SHT30;61807;48.384;-4.386;2023-04-15T03:08:16;10.18;74.56
73547;SHT30;61807;48.384;-4.386;2023-04-15T03:10:41;10.16;74.61
73547;SHT30;61807;48.384;-4.386;2023-04-15T03:13:07;10.14;74.65
73547;SHT30;61807;48.384;-4.386;2023-04-15T03:15:32;10.14;74.69
73547;SHT30;61807;48.384;-4.386;2023-04-15T03:17:58;10.13;74.66
73547;SHT30;61807;48.384;-4.386;2023-04-15T03:20:23;10.13;74.61
73547;SHT30;61807;48.384;-4.386;2023-04-15T03:22:49;10.12;74.70
73547;SHT30;61807;48.384;-4.386;2023-04-15T03:25:14;10.10;74.71
73547;SHT30;61807;48.384;-4.386;2023-04-15T03:27:40;10.12;74.73
73547;SHT30;61807;48.384;-4.386;2023-04-15T03:30:06;10.12;74.78
73547;SHT30;61807;48.384;-4.386;2023-04-15T03:32:33;10.13;74.77
73547;SHT30;61807;48.384;-4.386;2023-04-15T03:34:58;10.14;74.76
73547;SHT30;61807;48.384;-4.386;2023-04-15T03:37:23;10.14;74.69
73547;SHT30;61807;48.384;-4.386;2023-04-15T03:39:49;10.14;74.78
73547;SHT30;61807;48.384;-4.386;2023-04-15T03:42:15;10.14;74.71
73547;SHT30;61807;48.384;-4.386;2023-04-15T03:44:40;10.13;74.75
73547;SHT30;61807;48.384;-4.386;2023-04-15T03:47:06;10.13;74.78
73547;SHT30;61807;48.384;-4.386;2023-04-15T03:49:31;10.14;74.72
73547;SHT30;61807;48.384;-4.386;2023-04-15T03:51:57;10.17;74.70
73547;SHT30;61807;48.384;-4.386;2023-04-15T03:54:23;10.12;74.76
73547;SHT30;61807;48.384;-4.386;2023-04-15T03:56:49;10.13;74.79
73547;SHT30;61807;48.384;-4.386;2023-04-15T03:59:14;10.10;74.82
73547;SHT30;61807;48.384;-4.386;2023-04-15T04:01:40;10.12;74.79
73547;SHT30;61807;48.384;-4.386;2023-04-15T04:04:05;10.13;74.88
73547;SHT30;61807;48.384;-4.386;2023-04-15T04:06:30;10.12;74.88
73547;SHT30;61807;48.384;-4.386;2023-04-15T04:08:56;10.12;74.93
73547;SHT30;61807;48.384;-4.386;2023-04-15T04:11:22;10.12;74.93
73547;SHT30;61807;48.384;-4.386;2023-04-15T04:13:47;10.12;74.96
73547;SHT30;61807;48.384;-4.386;2023-04-15T04:16:12;10.16;74.95
73547;SHT30;61807;48.384;-4.386;2023-04-15T04:18:38;10.17;74.91
73547;SHT30;61807;48.384;-4.386;2023-04-15T04:21:03;10.16;74.85
73547;SHT30;61807;48.384;-4.386;2023-04-15T04:23:28;10.13;74.85
73547;SHT30;61807;48.384;-4.386;2023-04-15T04:25:54;10.10;74.94
73547;SHT30;61807;48.384;-4.386;2023-04-15T04:28:19;10.09;75.03
73547;SHT30;61807;48.384;-4.386;2023-04-15T04:30:45;10.09;75.07
73547;SHT30;61807;48.384;-4.386;2023-04-15T04:33:11;10.09;75.11
73547;SHT30;61807;48.384;-4.386;2023-04-15T04:35:36;10.10;75.16
73547;SHT30;61807;48.384;-4.386;2023-04-15T04:38:02;10.10;75.13
73547;SHT30;61807;48.384;-4.386;2023-04-15T04:40:28;10.12;75.17
73547;SHT30;61807;48.384;-4.386;2023-04-15T04:42:53;10.10;75.21
73547;SHT30;61807;48.384;-4.386;2023-04-15T04:45:19;10.12;75.19
73547;SHT30;61807;48.384;-4.386;2023-04-15T04:47:44;10.12;75.14
73547;SHT30;61807;48.384;-4.386;2023-04-15T04:50:11;10.10;75.17
73547;SHT30;61807;48.384;-4.386;2023-04-15T04:52:37;10.09;75.19
73547;SHT30;61807;48.384;-4.386;2023-04-15T04:55:03;10.06;75.19
73547;SHT30;61807;48.384;-4.386;2023-04-15T04:57:28;10.00;75.14
73547;SHT30;61807;48.384;-4.386;2023-04-15T04:59:53;9.96;75.28
73547;SHT30;61807;48.384;-4.386;2023-04-15T05:02:19;9.92;75.40
73547;SHT30;61807;48.384;-4.386;2023-04-15T05:04:44;9.89;75.48
73547;SHT30;61807;48.384;-4.386;2023-04-15T05:07:10;9.92;75.53
73547;SHT30;61807;48.384;-4.386;2023-04-15T05:09:35;9.89;75.62
73547;SHT30;61807;48.384;-4.386;2023-04-15T05:12:02;9.92;75.66
73547;SHT30;61807;48.384;-4.386;2023-04-15T05:14:28;9.95;75.70
73547;SHT30;61807;48.384;-4.386;2023-04-15T05:16:53;9.95;75.77
73547;SHT30;61807;48.384;-4.386;2023-04-15T05:19:18;9.97;75.75
73547;SHT30;61807;48.384;-4.386;2023-04-15T05:21:44;9.96;75.71
73547;SHT30;61807;48.384;-4.386;2023-04-15T05:24:09;9.93;75.80
73547;SHT30;61807;48.384;-4.386;2023-04-15T05:26:35;9.92;75.87
73547;SHT30;61807;48.384;-4.386;2023-04-15T05:29:00;9.92;75.94
73547;SHT30;61807;48.384;-4.386;2023-04-15T05:31:25;9.96;75.99
73547;SHT30;61807;48.384;-4.386;2023-04-15T05:33:51;9.92;76.09
73547;SHT30;61807;48.384;-4.386;2023-04-15T05:36:16;9.95;76.08
73547;SHT30;61807;48.384;-4.386;2023-04-15T05:38:42;9.95;76.21
73547;SHT30;61807;48.384;-4.386;2023-04-15T05:41:07;9.96;76.22
73547;SHT30;61807;48.384;-4.386;2023-04-15T05:43:33;10.00;76.21
73547;SHT30;61807;48.384;-4.386;2023-04-15T05:45:58;10.00;76.26
73547;SHT30;61807;48.384;-4.386;2023-04-15T05:48:23;10.02;76.33
73547;SHT30;61807;48.384;-4.386;2023-04-15T05:50:49;10.03;76.36
73547;SHT30;61807;48.384;-4.386;2023-04-15T05:53:15;10.03;76.47
73547;SHT30;61807;48.384;-4.386;2023-04-15T05:55:40;10.06;76.42
73547;SHT30;61807;48.384;-4.386;2023-04-15T05:58:06;10.09;76.46
73547;SHT30;61807;48.384;-4.386;2023-04-15T06:00:31;10.09;76.47
73547;SHT30;61807;48.384;-4.386;2023-04-15T06:02:57;10.09;76.52
73547;SHT30;61807;48.384;-4.386;2023-04-15T06:05:23;10.10;76.61
73547;SHT30;61807;48.384;-4.386;2023-04-15T06:07:49;10.12;76.82
73547;SHT30;61807;48.384;-4.386;2023-04-15T06:10:14;10.17;76.85
73547;SHT30;61807;48.384;-4.386;2023-04-15T06:12:40;10.18;76.85
73547;SHT30;61807;48.384;-4.386;2023-04-15T06:15:05;10.21;76.85
73547;SHT30;61807;48.384;-4.386;2023-04-15T06:17:31;10.27;76.84
73547;SHT30;61807;48.384;-4.386;2023-04-15T06:19:56;10.27;76.86
73547;SHT30;61807;48.384;-4.386;2023-04-15T06:22:23;10.26;76.97
73547;SHT30;61807;48.384;-4.386;2023-04-15T06:24:48;10.30;76.98
73547;SHT30;61807;48.384;-4.386;2023-04-15T06:27:15;10.37;76.94
73547;SHT30;61807;48.384;-4.386;2023-04-15T06:29:41;10.40;76.96
73547;SHT30;61807;48.384;-4.386;2023-04-15T06:32:06;10.41;76.96
73547;SHT30;61807;48.384;-4.386;2023-04-15T06:34:32;10.46;77.03
73547;SHT30;61807;48.384;-4.386;2023-04-15T06:36:58;10.51;77.04
73547;SHT30;61807;48.384;-4.386;2023-04-15T06:39:23;10.58;77.03
73547;SHT30;61807;48.384;-4.386;2023-04-15T06:41:48;10.67;77.01
73547;SHT30;61807;48.384;-4.386;2023-04-15T06:44:14;10.76;76.93
73547;SHT30;61807;48.384;-4.386;2023-04-15T06:46:40;10.84;76.88
73547;SHT30;61807;48.384;-4.386;2023-04-15T06:49:05;10.96;76.78
73547;SHT30;61807;48.384;-4.386;2023-04-15T06:51:30;11.06;76.77
73547;SHT30;61807;48.384;-4.386;2023-04-15T06:53:56;11.18;76.74
73547;SHT30;61807;48.384;-4.386;2023-04-15T06:56:22;11.25;76.61
73547;SHT30;61807;48.384;-4.386;2023-04-15T06:58:48;11.39;76.48
73547;SHT30;61807;48.384;-4.386;2023-04-15T07:01:13;11.46;76.46
73547;SHT30;61807;48.384;-4.386;2023-04-15T07:03:38;11.53;76.45
73547;SHT30;61807;48.384;-4.386;2023-04-15T07:06:04;11.63;76.40
73547;SHT30;61807;48.384;-4.386;2023-04-15T07:08:32;11.74;76.40
73547;SHT30;61807;48.384;-4.386;2023-04-15T07:10:59;11.77;76.29
73547;SHT30;61807;48.384;-4.386;2023-04-15T07:13:24;11.87;76.24
73547;SHT30;61807;48.384;-4.386;2023-04-15T07:15:50;11.94;76.25
73547;SHT30;61807;48.384;-4.386;2023-04-15T07:18:15;11.99;76.32
73547;SHT30;61807;48.384;-4.386;2023-04-15T07:20:41;12.06;76.14
73547;SHT30;61807;48.384;-4.386;2023-04-15T07:23:07;12.14;76.16
73547;SHT30;61807;48.384;-4.386;2023-04-15T07:25:32;12.20;76.22
73547;SHT30;61807;48.384;-4.386;2023-04-15T07:27:58;12.28;76.14
73547;SHT30;61807;48.384;-4.386;2023-04-15T07:30:23;12.35;75.93
73547;SHT30;61807;48.384;-4.386;2023-04-15T07:32:48;12.38;75.93
73547;SHT30;61807;48.384;-4.386;2023-04-15T07:35:14;12.42;75.98
73547;SHT30;61807;48.384;-4.386;2023-04-15T07:37:39;12.49;75.88
73547;SHT30;61807;48.384;-4.386;2023-04-15T07:40:06;12.53;75.84
73547;SHT30;61807;48.384;-4.386;2023-04-15T07:42:33;12.55;75.87
73547;SHT30;61807;48.384;-4.386;2023-04-15T07:44:59;12.56;75.77
73547;SHT30;61807;48.384;-4.386;2023-04-15T07:47:24;12.56;75.87
73547;SHT30;61807;48.384;-4.386;2023-04-15T07:49:51;12.57;75.89
73547;SHT30;61807;48.384;-4.386;2023-04-15T07:52:17;12.64;75.95
73547;SHT30;61807;48.384;-4.386;2023-04-15T07:54:42;12.69;75.84
73547;SHT30;61807;48.384;-4.386;2023-04-15T07:57:07;12.76;75.76
73547;SHT30;61807;48.384;-4.386;2023-04-15T07:59:33;12.83;75.57
73547;SHT30;61807;48.384;-4.386;2023-04-15T08:01:58;12.84;75.36
73547;SHT30;61807;48.384;-4.386;2023-04-15T08:04:24;12.97;75.19
73547;SHT30;61807;48.384;-4.386;2023-04-15T08:06:49;13.12;74.47
73547;SHT30;61807;48.384;-4.386;2023-04-15T08:09:15;13.24;74.12
73547;SHT30;61807;48.384;-4.386;2023-04-15T08:11:41;13.30;73.87
73547;SHT30;61807;48.384;-4.386;2023-04-15T08:14:06;13.35;73.59
73547;SHT30;61807;48.384;-4.386;2023-04-15T08:16:32;13.35;73.37
73547;SHT30;61807;48.384;-4.386;2023-04-15T08:18:57;13.38;73.41
73547;SHT30;61807;48.384;-4.386;2023-04-15T08:21:23;13.45;73.10
73547;SHT30;61807;48.384;-4.386;2023-04-15T08:23:50;13.54;72.91
73547;SHT30;61807;48.384;-4.386;2023-04-15T08:26:17;13.68;72.82
73547;SHT30;61807;48.384;-4.386;2023-04-15T08:28:43;13.82;72.36
73547;SHT30;61807;48.384;-4.386;2023-04-15T08:31:10;13.93;72.04
73547;SHT30;61807;48.384;-4.386;2023-04-15T08:33:35;13.93;70.91
73547;SHT30;61807;48.384;-4.386;2023-04-15T08:36:01;13.93;70.13
73547;SHT30;61807;48.384;-4.386;2023-04-15T08:38:26;13.89;69.97
73547;SHT30;61807;48.384;-4.386;2023-04-15T08:40:52;13.87;69.85
73547;SHT30;61807;48.384;-4.386;2023-04-15T08:43:21;13.89;69.88
73547;SHT30;61807;48.384;-4.386;2023-04-15T08:45:51;13.95;69.97
73547;SHT30;61807;48.384;-4.386;2023-04-15T08:48:17;14.05;69.88
73547;SHT30;61807;48.384;-4.386;2023-04-15T08:50:44;14.20;69.83
73547;SHT30;61807;48.384;-4.386;2023-04-15T08:53:11;14.28;69.03
73547;SHT30;61807;48.384;-4.386;2023-04-15T08:55:41;14.28;68.29
73547;SHT30;61807;48.384;-4.386;2023-04-15T08:58:09;14.33;68.26
73547;SHT30;61807;48.384;-4.386;2023-04-15T09:00:36;14.40;67.43
73547;SHT30;61807;48.384;-4.386;2023-04-15T09:03:03;14.55;67.36
73547;SHT30;61807;48.384;-4.386;2023-04-15T09:05:31;14.78;67.56
73547;SHT30;61807;48.384;-4.386;2023-04-15T09:07:57;14.95;66.70
73547;SHT30;61807;48.384;-4.386;2023-04-15T09:10:23;15.03;66.19
73547;SHT30;61807;48.384;-4.386;2023-04-15T09:12:48;15.16;65.56
73547;SHT30;61807;48.384;-4.386;2023-04-15T09:15:14;15.32;64.49
73547;SHT30;61807;48.384;-4.386;2023-04-15T09:17:44;15.58;63.96
73547;SHT30;61807;48.384;-4.386;2023-04-15T09:20:12;16.01;63.48
73547;SHT30;61807;48.384;-4.386;2023-04-15T09:22:40;16.48;63.09
73547;SHT30;61807;48.384;-4.386;2023-04-15T09:25:27;17.03;62.19
73547;SHT30;61807;48.384;-4.386;2023-04-15T09:27:58;17.53;62.38
73547;SHT30;61807;48.384;-4.386;2023-04-15T09:30:24;17.92;60.18
73547;SHT30;61807;48.384;-4.386;2023-04-15T09:32:56;17.83;60.23
73547;SHT30;61807;48.384;-4.386;2023-04-15T09:35:23;17.80;59.15
73547;SHT30;61807;48.384;-4.386;2023-04-15T09:37:49;18.07;59.48
73547;SHT30;61807;48.384;-4.386;2023-04-15T09:40:40;18.45;58.36
73547;SHT30;61807;48.384;-4.386;2023-04-15T09:43:07;18.84;57.24
73547;SHT30;61807;48.384;-4.386;2023-04-15T09:45:34;18.68;55.52
73547;SHT30;61807;48.384;-4.386;2023-04-15T09:50:40;19.09;56.35
73547;SHT30;61807;48.384;-4.386;2023-04-15T09:53:09;19.38;55.45
73547;SHT30;61807;48.384;-4.386;2023-04-15T09:55:35;19.51;54.69
73547;SHT30;61807;48.384;-4.386;2023-04-15T09:58:00;19.54;54.73
73547;SHT30;61807;48.384;-4.386;2023-04-15T10:00:28;19.24;54.14
73547;SHT30;61807;48.384;-4.386;2023-04-15T10:02:54;18.91;51.35
73547;SHT30;61807;48.384;-4.386;2023-04-15T10:05:20;18.65;53.13
73547;SHT30;61807;48.384;-4.386;2023-04-15T10:07:47;18.43;53.54
73547;SHT30;61807;48.384;-4.386;2023-04-15T10:10:14;18.26;53.48
73547;SHT30;61807;48.384;-4.386;2023-04-15T10:12:40;18.14;53.46
73547;SHT30;61807;48.384;-4.386;2023-04-15T10:15:15;18.01;54.10
73547;SHT30;61807;48.384;-4.386;2023-04-15T10:17:43;17.90;54.58
73547;SHT30;61807;48.384;-4.386;2023-04-15T10:20:09;17.68;54.30
73547;SHT30;61807;48.384;-4.386;2023-04-15T10:22:37;17.43;53.79
73547;SHT30;61807;48.384;-4.386;2023-04-15T10:25:04;17.25;53.61
73547;SHT30;61807;48.384;-4.386;2023-04-15T10:27:30;17.03;53.14
73547;SHT30;61807;48.384;-4.386;2023-04-15T10:29:59;16.97;53.37
73547;SHT30;61807;48.384;-4.386;2023-04-15T10:32:25;16.93;53.28
73547;SHT30;61807;48.384;-4.386;2023-04-15T10:34:52;16.73;53.82
73547;SHT30;61807;48.384;-4.386;2023-04-15T10:37:24;16.66;54.60
73547;SHT30;61807;48.384;-4.386;2023-04-15T10:39:57;16.60;54.92
73547;SHT30;61807;48.384;-4.386;2023-04-15T10:42:23;16.52;55.45
73547;SHT30;61807;48.384;-4.386;2023-04-15T10:44:50;16.52;55.88
73547;SHT30;61807;48.384;-4.386;2023-04-15T10:47:17;16.49;55.99
73547;SHT30;61807;48.384;-4.386;2023-04-15T10:49:49;16.51;55.54
73547;SHT30;61807;48.384;-4.386;2023-04-15T10:52:16;16.41;55.65
73547;SHT30;61807;48.384;-4.386;2023-04-15T10:54:43;16.30;55.69
73547;SHT30;61807;48.384;-4.386;2023-04-15T11:05:03;16.15;56.75
73547;SHT30;61807;48.384;-4.386;2023-04-15T11:12:51;15.75;55.78
73547;SHT30;61807;48.384;-4.386;2023-04-15T11:15:36;15.71;56.08
73547;SHT30;61807;48.384;-4.386;2023-04-15T11:20:41;15.57;56.39
73547;SHT30;61807;48.384;-4.386;2023-04-15T11:23:07;15.57;56.01
73547;SHT30;61807;48.384;-4.386;2023-04-15T11:25:34;15.56;56.21
73547;SHT30;61807;48.384;-4.386;2023-04-15T11:28:00;15.63;56.16
73547;SHT30;61807;48.384;-4.386;2023-04-15T11:30:28;15.65;56.18
73547;SHT30;61807;48.384;-4.386;2023-04-15T11:32:59;15.80;55.20
73547;SHT30;61807;48.384;-4.386;2023-04-15T11:35:24;15.98;54.72
73547;SHT30;61807;48.384;-4.386;2023-04-15T11:37:50;16.15;55.20
73547;SHT30;61807;48.384;-4.386;2023-04-15T11:40:21;16.29;54.44
73547;SHT30;61807;48.384;-4.386;2023-04-15T11:45:37;16.14;54.44
73547;SHT30;61807;48.384;-4.386;2023-04-15T11:48:10;16.24;54.31
73547;SHT30;61807;48.384;-4.386;2023-04-15T11:50:36;16.59;54.38
73547;SHT30;61807;48.384;-4.386;2023-04-15T11:53:04;17.12;53.58
73547;SHT30;61807;48.384;-4.386;2023-04-15T11:55:30;17.68;52.80
73547;SHT30;61807;48.384;-4.386;2023-04-15T11:58:23;18.03;51.98
73547;SHT30;61807;48.384;-4.386;2023-04-15T12:00:54;18.50;51.73
73547;SHT30;61807;48.384;-4.386;2023-04-15T12:03:26;18.87;51.01
73547;SHT30;61807;48.384;-4.386;2023-04-15T12:06:20;19.45;49.33
73547;SHT30;61807;48.384;-4.386;2023-04-15T12:09:08;19.20;47.85
73547;SHT30;61807;48.384;-4.386;2023-04-15T12:11:56;19.46;48.65
73547;SHT30;61807;48.384;-4.386;2023-04-15T12:14:30;19.98;47.19
73547;SHT30;61807;48.384;-4.386;2023-04-15T12:16:58;20.46;46.69
73547;SHT30;61807;48.384;-4.386;2023-04-15T12:19:29;20.95;46.24
73547;SHT30;61807;48.384;-4.386;2023-04-15T12:22:01;21.08;45.83
73547;SHT30;61807;48.384;-4.386;2023-04-15T12:24:30;21.07;45.10
73547;SHT30;61807;48.384;-4.386;2023-04-15T12:26:57;21.32;44.84
73547;SHT30;61807;48.384;-4.386;2023-04-15T12:29:27;21.85;44.43
73547;SHT30;61807;48.384;-4.386;2023-04-15T12:31:57;22.34;44.39
73547;SHT30;61807;48.384;-4.386;2023-04-15T12:34:31;22.21;44.05
73547;SHT30;61807;48.384;-4.386;2023-04-15T12:36:59;22.09;42.97
73547;SHT30;61807;48.384;-4.386;2023-04-15T12:39:26;22.33;43.56
73547;SHT30;61807;48.384;-4.386;2023-04-15T12:41:52;22.82;43.41
73547;SHT30;61807;48.384;-4.386;2023-04-15T12:44:18;22.89;42.95
73547;SHT30;61807;48.384;-4.386;2023-04-15T12:46:44;22.41;42.70
73547;SHT30;61807;48.384;-4.386;2023-04-15T12:49:10;21.96;42.47
73547;SHT30;61807;48.384;-4.386;2023-04-15T12:51:35;22.25;42.88
73547;SHT30;61807;48.384;-4.386;2023-04-15T12:54:01;22.71;42.52
73547;SHT30;61807;48.384;-4.386;2023-04-15T12:56:26;23.13;41.82
73547;SHT30;61807;48.384;-4.386;2023-04-15T12:58:52;23.56;41.18
73547;SHT30;61807;48.384;-4.386;2023-04-15T13:01:17;23.97;40.79
73547;SHT30;61807;48.384;-4.386;2023-04-15T13:03:43;24.06;40.27
73547;SHT30;61807;48.384;-4.386;2023-04-15T13:06:09;23.37;40.33
73547;SHT30;61807;48.384;-4.386;2023-04-15T13:08:34;23.40;41.22
73547;SHT30;61807;48.384;-4.386;2023-04-15T13:10:59;23.45;39.92
73547;SHT30;61807;48.384;-4.386;2023-04-15T13:13:25;23.46;40.09
73547;SHT30;61807;48.384;-4.386;2023-04-15T13:15:51;23.60;39.99
73547;SHT30;61807;48.384;-4.386;2023-04-15T13:18:16;23.02;40.47
73547;SHT30;61807;48.384;-4.386;2023-04-15T13:20:42;22.69;40.99
73547;SHT30;61807;48.384;-4.386;2023-04-15T13:23:08;22.09;41.67
73547;SHT30;61807;48.384;-4.386;2023-04-15T13:25:33;21.75;42.40
73547;SHT30;61807;48.384;-4.386;2023-04-15T13:27:59;21.92;42.61
73547;SHT30;61807;48.384;-4.386;2023-04-15T13:30:25;22.10;42.65
73547;SHT30;61807;48.384;-4.386;2023-04-15T13:32:52;22.27;41.97
73547;SHT30;61807;48.384;-4.386;2023-04-15T13:35:18;22.51;41.21
73547;SHT30;61807;48.384;-4.386;2023-04-15T13:37:44;22.76;40.55
73547;SHT30;61807;48.384;-4.386;2023-04-15T13:40:10;22.78;39.17
73547;SHT30;61807;48.384;-4.386;2023-04-15T13:42:36;22.81;39.61
73547;SHT30;61807;48.384;-4.386;2023-04-15T13:45:01;22.88;39.07
73547;SHT30;61807;48.384;-4.386;2023-04-15T13:47:27;22.85;39.53
73547;SHT30;61807;48.384;-4.386;2023-04-15T13:49:52;22.75;38.66
73547;SHT30;61807;48.384;-4.386;2023-04-15T13:52:20;22.75;39.20
73547;SHT30;61807;48.384;-4.386;2023-04-15T13:54:45;22.81;39.27
73547;SHT30;61807;48.384;-4.386;2023-04-15T13:57:12;22.91;38.81
73547;SHT30;61807;48.384;-4.386;2023-04-15T13:59:38;22.95;37.91
73547;SHT30;61807;48.384;-4.386;2023-04-15T14:02:04;23.03;38.43
73547;SHT30;61807;48.384;-4.386;2023-04-15T14:04:30;23.12;38.61
73547;SHT30;61807;48.384;-4.386;2023-04-15T14:06:56;23.10;38.46
73547;SHT30;61807;48.384;-4.386;2023-04-15T14:09:22;23.22;38.39
73547;SHT30;61807;48.384;-4.386;2023-04-15T14:11:48;23.33;38.43
73547;SHT30;61807;48.384;-4.386;2023-04-15T14:14:14;23.47;38.23
73547;SHT30;61807;48.384;-4.386;2023-04-15T14:16:40;23.58;37.78
73547;SHT30;61807;48.384;-4.386;2023-04-15T14:19:05;23.54;37.71
73547;SHT30;61807;48.384;-4.386;2023-04-15T14:21:30;23.57;37.55
73547;SHT30;61807;48.384;-4.386;2023-04-15T14:23:57;23.63;37.43
73547;SHT30;61807;48.384;-4.386;2023-04-15T14:26:22;23.71;38.28
73547;SHT30;61807;48.384;-4.386;2023-04-15T14:28:48;23.78;37.42
73547;SHT30;61807;48.384;-4.386;2023-04-15T14:31:13;23.84;37.32
73547;SHT30;61807;48.384;-4.386;2023-04-15T14:33:39;23.82;37.22
73547;SHT30;61807;48.384;-4.386;2023-04-15T14:36:06;23.73;36.37
73547;SHT30;61807;48.384;-4.386;2023-04-15T14:38:33;23.73;36.68
73547;SHT30;61807;48.384;-4.386;2023-04-15T14:41:03;23.77;36.63
73547;SHT30;61807;48.384;-4.386;2023-04-15T14:43:28;23.74;36.64
73547;SHT30;61807;48.384;-4.386;2023-04-15T14:45:54;23.70;37.11
73547;SHT30;61807;48.384;-4.386;2023-04-15T14:48:20;23.58;36.35
73547;SHT30;61807;48.384;-4.386;2023-04-15T14:50:45;23.22;35.49
73547;SHT30;61807;48.384;-4.386;2023-04-15T14:53:11;22.73;37.27
73547;SHT30;61807;48.384;-4.386;2023-04-15T14:55:36;22.44;38.20
73547;SHT30;61807;48.384;-4.386;2023-04-15T14:58:02;22.16;38.01
73547;SHT30;61807;48.384;-4.386;2023-04-15T15:00:28;21.97;37.90
73547;SHT30;61807;48.384;-4.386;2023-04-15T15:02:54;21.80;38.65
73547;SHT30;61807;48.384;-4.386;2023-04-15T15:05:20;21.63;38.56
73547;SHT30;61807;48.384;-4.386;2023-04-15T15:07:45;21.45;38.72
73547;SHT30;61807;48.384;-4.386;2023-04-15T15:10:11;21.28;38.81
73547;SHT30;61807;48.384;-4.386;2023-04-15T15:12:36;21.24;39.22
73547;SHT30;61807;48.384;-4.386;2023-04-15T15:15:02;21.21;39.29
73547;SHT30;61807;48.384;-4.386;2023-04-15T15:17:28;21.15;39.90
73547;SHT30;61807;48.384;-4.386;2023-04-15T15:19:53;21.05;39.65
73547;SHT30;61807;48.384;-4.386;2023-04-15T15:22:19;20.81;40.04
73547;SHT30;61807;48.384;-4.386;2023-04-15T15:24:44;20.52;40.50
73547;SHT30;61807;48.384;-4.386;2023-04-15T15:27:10;20.30;40.51
73547;SHT30;61807;48.384;-4.386;2023-04-15T15:29:36;20.06;40.35
73547;SHT30;61807;48.384;-4.386;2023-04-15T15:32:02;19.74;40.45
73547;SHT30;61807;48.384;-4.386;2023-04-15T15:34:27;19.49;41.37